Time;durP1;ratioP1;P1;durP2;ratioP2;P2;SDS_P1;SDS_P2;PMS_P1;PMS_P2;Temp;Humidity;BMP_temperature;BMP_pressure;BME280_temperature;BME280_humidity;BME280_pressure;Samples;Min_cycle;Max_cycle;Signal;HPM_P1;HPM_P2
2022/03/04 00:01:46;;;;;;;111.03;56.97;;;;;;;3.33;59.63;100259.22;5110850;28;20057;-72
2022/03/04 00:04:13;;;;;;;108.80;56.40;;;;;;;3.40;59.34;100273.81;5110494;28;20409;-70
2022/03/04 00:06:38;;;;;;;109.88;55.97;;;;;;;3.23;59.45;100255.41;5110995;28;20027;-71
2022/03/04 00:09:04;;;;;;;121.10;57.67;;;;;;;3.28;59.76;100261.28;5110584;28;20030;-71
2022/03/04 00:11:29;;;;;;;116.20;56.88;;;;;;;3.30;60.14;100270.00;5109390;28;20027;-71
2022/03/04 00:13:55;;;;;;;111.38;56.00;;;;;;;3.28;60.23;100262.13;5114778;28;20035;-79
2022/03/04 00:16:20;;;;;;;110.53;56.22;;;;;;;3.31;60.18;100269.91;5115029;28;20051;-78
2022/03/04 00:19:06;;;;;;;112.07;54.58;;;;;;;3.35;60.05;100284.69;5114684;28;20036;-79
2022/03/04 00:21:44;;;;;;;106.03;51.42;;;;;;;3.36;59.85;100273.16;5113861;28;20030;-79
2022/03/04 00:24:11;;;;;;;99.90;50.30;;;;;;;3.34;59.92;100260.91;5115140;28;20126;-79
2022/03/04 00:26:38;;;;;;;99.32;49.40;;;;;;;3.42;60.01;100275.41;5115366;28;20737;-78
2022/03/04 00:29:05;;;;;;;99.13;48.92;;;;;;;3.33;59.93;100254.78;5115685;28;20471;-78
2022/03/04 00:31:31;;;;;;;89.13;47.00;;;;;;;3.45;60.12;100269.09;5115076;28;20034;-79
2022/03/04 00:33:57;;;;;;;82.13;43.55;;;;;;;3.44;59.65;100264.72;5114803;28;20023;-78
2022/03/04 00:36:23;;;;;;;81.65;43.17;;;;;;;3.54;59.63;100281.78;5105536;28;20030;-79
2022/03/04 00:38:55;;;;;;;77.85;39.85;;;;;;;3.53;59.74;100267.69;5114969;28;20028;-79
2022/03/04 00:41:22;;;;;;;66.60;36.20;;;;;;;3.58;59.28;100276.22;5113606;28;20039;-78
2022/03/04 00:43:49;;;;;;;56.05;29.13;;;;;;;3.62;58.40;100268.94;5113851;28;20096;-78
2022/03/04 00:46:15;;;;;;;51.63;29.00;;;;;;;3.66;58.03;100271.31;5102379;28;20065;-78
2022/03/04 00:48:41;;;;;;;54.90;29.58;;;;;;;3.74;57.79;100281.47;5114327;28;20364;-78
2022/03/04 00:51:08;;;;;;;53.83;29.15;;;;;;;3.79;57.48;100276.72;5114380;28;20027;-78
2022/03/04 00:53:34;;;;;;;55.03;29.58;;;;;;;3.75;57.38;100257.50;5114265;28;20506;-78
2022/03/04 00:55:59;;;;;;;59.47;28.13;;;;;;;3.87;57.31;100262.03;5114472;28;20054;-78
2022/03/04 00:58:25;;;;;;;49.00;28.00;;;;;;;3.92;57.20;100267.06;5102506;28;20035;-77
2022/03/04 01:00:51;;;;;;;54.78;29.65;;;;;;;3.94;57.30;100262.53;5099411;28;20035;-78
2022/03/04 01:03:16;;;;;;;50.70;27.98;;;;;;;4.00;56.76;100262.16;5114035;28;20440;-78
2022/03/04 01:05:42;;;;;;;53.53;28.80;;;;;;;4.05;56.82;100268.88;5114071;28;20028;-77
2022/03/04 01:08:08;;;;;;;50.63;27.77;;;;;;;4.01;56.95;100243.50;5113571;28;20055;-78
2022/03/04 01:10:33;;;;;;;48.22;28.20;;;;;;;4.13;56.72;100249.84;5114074;28;20131;-79
2022/03/04 01:12:59;;;;;;;53.67;28.15;;;;;;;4.11;56.84;100238.44;5113566;28;20031;-78
2022/03/04 01:15:25;;;;;;;49.28;27.23;;;;;;;4.13;56.83;100239.22;5104144;28;20015;-78
2022/03/04 01:17:50;;;;;;;52.03;27.15;;;;;;;4.19;56.64;100244.09;5106639;28;20027;-78
2022/03/04 01:20:16;;;;;;;47.40;27.40;;;;;;;4.15;57.02;100238.16;5113686;28;20430;-78
2022/03/04 01:22:42;;;;;;;50.17;25.75;;;;;;;4.16;56.91;100239.84;5113496;28;20048;-78
2022/03/04 01:25:08;;;;;;;53.63;27.27;;;;;;;4.32;56.82;100259.19;5113952;28;20098;-79
2022/03/04 01:27:34;;;;;;;49.22;26.48;;;;;;;4.32;56.81;100258.34;5113390;28;20378;-77
2022/03/04 01:29:59;;;;;;;54.97;26.85;;;;;;;4.31;56.75;100256.63;5113666;28;20028;-78
2022/03/04 01:32:25;;;;;;;50.33;27.13;;;;;;;4.34;56.78;100254.63;5113384;28;20030;-78
2022/03/04 01:34:50;;;;;;;52.47;27.42;;;;;;;4.39;56.72;100260.47;5113524;28;20024;-77
2022/03/04 01:37:16;;;;;;;50.58;26.83;;;;;;;4.41;56.74;100255.06;5113368;28;20019;-78
2022/03/04 01:39:42;;;;;;;49.88;26.20;;;;;;;4.42;57.16;100257.63;5113609;28;20030;-78
2022/03/04 01:42:08;;;;;;;46.55;26.77;;;;;;;4.40;57.11;100253.38;5112408;28;20023;-70
2022/03/04 01:44:34;;;;;;;48.88;24.80;;;;;;;4.42;56.90;100246.19;5104545;28;20066;-70
2022/03/04 01:47:01;;;;;;;43.15;24.92;;;;;;;4.47;57.19;100252.03;5108939;28;20491;-70
2022/03/04 01:49:26;;;;;;;43.80;23.95;;;;;;;4.49;57.46;100258.13;5108931;28;20024;-71
2022/03/04 01:51:52;;;;;;;39.00;23.35;;;;;;;4.48;57.46;100251.94;5099516;28;20020;-70
2022/03/04 01:54:17;;;;;;;41.05;23.95;;;;;;;4.45;57.67;100240.69;5108648;28;20032;-70
2022/03/04 01:56:43;;;;;;;38.03;22.08;;;;;;;4.47;57.92;100236.97;5108432;28;20015;-71
2022/03/04 01:59:08;;;;;;;40.78;22.98;;;;;;;4.47;57.91;100234.31;5098965;28;20035;-71
2022/03/04 02:01:35;;;;;;;41.25;22.55;;;;;;;4.44;57.89;100228.34;5108077;28;20051;-71
2022/03/04 02:04:00;;;;;;;43.85;23.27;;;;;;;4.44;57.89;100223.03;5108428;27;20474;-71
2022/03/04 02:06:26;;;;;;;37.63;21.95;;;;;;;4.46;57.85;100221.97;5108263;28;20024;-70
2022/03/04 02:08:51;;;;;;;41.83;22.88;;;;;;;4.49;58.14;100220.94;5108993;28;20046;-78
2022/03/04 02:11:17;;;;;;;37.70;21.75;;;;;;;4.51;57.87;100226.97;5113483;28;20035;-78
2022/03/04 02:13:43;;;;;;;37.70;21.00;;;;;;;4.61;58.02;100247.53;5113162;28;20038;-77
2022/03/04 02:16:38;;;;;;;36.03;21.33;;;;;;;4.60;57.86;100243.19;5113177;28;20027;-78
2022/03/04 02:19:04;;;;;;;36.03;20.88;;;;;;;4.50;57.86;100227.94;5111833;28;20043;-77
2022/03/04 02:21:32;;;;;;;37.88;21.38;;;;;;;4.58;57.88;100236.28;5113363;28;20054;-78
2022/03/04 02:23:58;;;;;;;36.67;21.38;;;;;;;4.59;57.98;100237.97;5109484;28;20043;-78
2022/03/04 02:26:23;;;;;;;34.65;20.63;;;;;;;4.61;58.03;100244.88;5112292;28;20030;-79
2022/03/04 02:28:50;;;;;;;35.38;21.17;;;;;;;4.61;58.06;100244.03;5112538;28;20011;-79
2022/03/04 02:31:18;;;;;;;33.78;19.88;;;;;;;4.62;58.01;100251.06;5112032;28;20038;-79
2022/03/04 02:33:46;;;;;;;39.97;21.98;;;;;;;4.60;58.05;100245.00;5112418;28;20051;-79
2022/03/04 02:36:12;;;;;;;37.75;21.70;;;;;;;4.54;58.12;100232.97;5112880;28;20459;-78
2022/03/04 02:38:37;;;;;;;35.25;21.35;;;;;;;4.55;58.12;100239.97;5112745;28;20027;-79
2022/03/04 02:41:03;;;;;;;41.17;21.38;;;;;;;4.51;57.96;100232.28;5112867;28;20034;-76
2022/03/04 02:43:29;;;;;;;38.50;22.05;;;;;;;4.58;58.14;100254.88;5112799;28;20063;-78
2022/03/04 02:45:55;;;;;;;39.20;21.52;;;;;;;4.57;58.01;100251.34;5112728;28;20047;-79
2022/03/04 02:48:20;;;;;;;38.63;21.92;;;;;;;4.51;58.19;100241.13;5112421;28;20094;-79
2022/03/04 02:50:46;;;;;;;34.53;20.35;;;;;;;4.57;58.24;100256.66;5112917;28;20479;-78
2022/03/04 02:53:11;;;;;;;34.95;20.65;;;;;;;4.49;58.04;100240.34;5100878;28;20031;-79
2022/03/04 02:55:37;;;;;;;35.17;21.13;;;;;;;4.54;58.17;100256.88;5112807;28;20033;-79
2022/03/04 02:58:02;;;;;;;38.42;20.83;;;;;;;4.57;58.30;100258.47;5104834;28;20023;-71
2022/03/04 03:00:28;;;;;;;37.95;20.38;;;;;;;4.61;58.34;100263.47;5107540;28;20132;-70
2022/03/04 03:02:53;;;;;;;35.80;20.48;;;;;;;4.59;58.41;100262.72;5107605;28;20027;-72
2022/03/04 03:05:18;;;;;;;39.10;21.42;;;;;;;4.59;58.91;100262.72;5107706;28;20027;-70
2022/03/04 03:07:44;;;;;;;39.47;22.35;;;;;;;4.60;59.82;100272.41;5095830;28;20430;-70
2022/03/04 03:10:10;;;;;;;37.65;21.85;;;;;;;4.49;61.10;100250.16;5107698;28;20032;-70
2022/03/04 03:12:37;;;;;;;37.63;22.75;;;;;;;4.55;62.36;100265.69;5107278;28;20058;-71
2022/03/04 03:15:03;;;;;;;40.92;23.30;;;;;;;4.45;63.24;100261.94;5107912;28;20530;-71
2022/03/04 03:17:28;;;;;;;37.67;22.30;;;;;;;4.45;63.65;100256.63;5107577;28;20106;-71
2022/03/04 03:19:54;;;;;;;41.65;23.33;;;;;;;4.45;64.55;100273.38;5107557;28;20051;-71
2022/03/04 03:22:19;;;;;;;37.33;22.15;;;;;;;4.37;64.80;100265.06;5107341;28;20036;-70
2022/03/04 03:24:46;;;;;;;41.33;23.48;;;;;;;4.41;65.20;100276.31;5107855;28;20019;-71
2022/03/04 03:27:11;;;;;;;40.55;22.95;;;;;;;4.25;65.78;100254.34;5107607;28;20115;-71
2022/03/04 03:29:37;;;;;;;38.20;23.48;;;;;;;4.32;66.00;100266.31;5107220;28;20103;-72
2022/03/04 03:32:03;;;;;;;41.67;23.35;;;;;;;4.33;66.17;100278.63;5108229;28;20076;-78
2022/03/04 03:34:28;;;;;;;41.30;23.40;;;;;;;4.31;66.28;100285.81;5112453;28;20365;-79
2022/03/04 03:36:53;;;;;;;38.33;22.52;;;;;;;4.24;66.78;100272.09;5112355;28;20039;-78
2022/03/04 03:39:19;;;;;;;42.47;23.38;;;;;;;4.23;67.13;100274.84;5112842;28;20532;-79
2022/03/04 03:41:44;;;;;;;39.58;23.80;;;;;;;4.25;67.40;100270.28;5112769;28;20027;-80
2022/03/04 03:44:10;;;;;;;38.20;22.70;;;;;;;4.22;67.73;100279.28;5112777;28;20035;-79
2022/03/04 03:46:35;;;;;;;45.72;24.05;;;;;;;4.22;68.44;100297.00;5115208;28;20457;-78
2022/03/04 03:49:01;;;;;;;42.20;22.90;;;;;;;4.20;68.60;100288.31;5116598;28;20081;-78
2022/03/04 03:51:26;;;;;;;42.72;23.90;;;;;;;4.06;69.70;100270.56;5115992;28;20024;-78
2022/03/04 03:53:52;;;;;;;44.47;24.65;;;;;;;4.07;70.93;100282.88;5115878;28;20166;-77
2022/03/04 03:56:17;;;;;;;43.33;24.70;;;;;;;3.99;72.66;100293.13;5115345;28;20385;-78
2022/03/04 03:58:43;;;;;;;42.33;24.67;;;;;;;4.03;74.53;100299.94;5105412;28;20491;-78
2022/03/04 04:01:08;;;;;;;41.25;25.13;;;;;;;3.88;76.15;100285.00;5113516;27;20449;-77
2022/03/04 04:03:34;;;;;;;44.13;26.20;;;;;;;3.83;76.86;100275.56;5112516;28;20030;-77
2022/03/04 04:05:59;;;;;;;45.03;25.38;;;;;;;3.82;77.73;100288.00;5112040;28;20046;-76
2022/03/04 04:08:25;;;;;;;47.08;25.40;;;;;;;3.81;78.33;100296.88;5113148;28;20020;-79
2022/03/04 04:10:50;;;;;;;44.88;25.30;;;;;;;3.76;79.13;100301.63;5112961;28;20419;-77
2022/03/04 04:13:15;;;;;;;46.15;26.92;;;;;;;3.69;79.58;100296.78;5112011;28;20040;-77
2022/03/04 04:15:41;;;;;;;43.72;26.02;;;;;;;3.68;80.14;100303.88;5105234;28;20091;-77
2022/03/04 04:18:06;;;;;;;47.17;26.15;;;;;;;3.68;79.99;100308.34;5111525;28;20084;-78
2022/03/04 04:20:32;;;;;;;46.08;25.85;;;;;;;3.61;80.25;100301.72;5099424;28;20030;-79
2022/03/04 04:22:58;;;;;;;49.55;27.80;;;;;;;3.49;80.52;100286.53;5102229;28;20411;-78
2022/03/04 04:25:23;;;;;;;50.05;28.52;;;;;;;3.55;81.43;100307.38;5111864;28;20031;-77
2022/03/04 04:27:49;;;;;;;51.92;27.77;;;;;;;3.43;82.17;100287.75;5111620;28;20099;-78
2022/03/04 04:30:14;;;;;;;48.47;27.42;;;;;;;3.47;83.10;100302.53;5111508;28;20038;-78
2022/03/04 04:32:40;;;;;;;49.28;27.92;;;;;;;3.48;84.02;100304.22;5111132;27;20027;-77
2022/03/04 04:35:06;;;;;;;49.83;27.70;;;;;;;3.52;84.69;100318.16;5111160;28;20024;-77
2022/03/04 04:37:31;;;;;;;51.63;28.48;;;;;;;3.38;85.40;100302.19;5111059;28;20049;-77
2022/03/04 04:39:57;;;;;;;49.17;28.65;;;;;;;3.39;85.40;100311.88;5101898;28;20024;-76
2022/03/04 04:42:22;;;;;;;54.95;29.83;;;;;;;3.39;86.25;100301.28;5110798;28;20055;-76
2022/03/04 04:44:48;;;;;;;50.85;29.30;;;;;;;3.35;86.85;100315.66;5111289;28;20059;-75
2022/03/04 04:47:14;;;;;;;53.05;31.33;;;;;;;3.25;87.31;100311.81;5111029;28;20606;-77
2022/03/04 04:49:39;;;;;;;47.35;28.83;;;;;;;3.26;87.88;100316.19;5111015;28;20485;-77
2022/03/04 04:52:06;;;;;;;55.20;29.17;;;;;;;3.14;88.56;100299.19;5111004;27;20019;-78
2022/03/04 04:54:32;;;;;;;50.10;29.77;;;;;;;3.21;89.33;100318.22;5110647;28;20027;-77
2022/03/04 04:56:57;;;;;;;53.55;30.27;;;;;;;3.15;89.82;100315.94;5109862;28;20102;-77
2022/03/04 04:59:23;;;;;;;51.95;29.67;;;;;;;3.06;90.60;100312.00;5110388;28;20031;-78
2022/03/04 05:01:48;;;;;;;55.70;32.58;;;;;;;3.11;90.97;100319.69;5110672;28;20024;-75
2022/03/04 05:04:13;;;;;;;52.78;31.30;;;;;;;3.06;91.66;100316.47;5110588;28;20031;-75
2022/03/04 05:06:39;;;;;;;57.00;31.27;;;;;;;3.05;91.80;100326.22;5103674;28;20111;-76
2022/03/04 05:09:04;;;;;;;53.38;30.45;;;;;;;3.03;92.14;100328.09;5110538;28;20037;-77
2022/03/04 05:11:30;;;;;;;56.38;30.85;;;;;;;2.97;92.62;100324.94;5110485;28;20023;-80
2022/03/04 05:13:55;;;;;;;56.65;31.58;;;;;;;2.96;92.80;100332.03;5109988;28;20027;-72
2022/03/04 05:16:21;;;;;;;55.05;31.75;;;;;;;2.92;92.99;100338.44;5109847;28;20023;-72
2022/03/04 05:18:47;;;;;;;52.03;29.67;;;;;;;2.82;93.23;100328.44;5110098;28;20032;-73
2022/03/04 05:21:12;;;;;;;51.63;31.15;;;;;;;2.84;93.15;100347.75;5110051;28;20027;-73
2022/03/04 05:26:22;;;;;;;58.20;30.40;;;;;;;2.75;93.93;100335.03;5108636;28;20026;-72
2022/03/04 05:28:47;;;;;;;56.95;31.73;;;;;;;2.78;93.61;100346.31;5110063;28;20390;-72
2022/03/04 05:31:13;;;;;;;52.70;30.58;;;;;;;2.76;93.61;100340.25;5109964;28;20050;-71
2022/03/04 05:33:38;;;;;;;53.80;31.02;;;;;;;2.78;93.15;100343.66;5109537;28;20051;-72
2022/03/04 05:36:04;;;;;;;54.53;31.20;;;;;;;2.74;93.32;100342.09;5091972;28;20056;-71
2022/03/04 05:38:30;;;;;;;55.83;32.17;;;;;;;2.78;93.74;100346.31;5109248;28;20744;-73
2022/03/04 05:40:55;;;;;;;53.42;30.42;;;;;;;2.84;93.32;100358.34;5109695;28;20106;-73
2022/03/04 05:43:20;;;;;;;60.90;30.30;;;;;;;2.78;93.17;100353.41;5109358;28;20019;-73
2022/03/04 06:01:46;;;;;;;54.30;34.13;;;;;;;2.97;92.49;100386.69;5108021;27;20380;-68
2022/03/04 06:04:11;;;;;;;51.58;30.92;;;;;;;2.99;92.27;100386.63;5108397;28;20039;-68
2022/03/04 06:06:37;;;;;;;55.85;32.55;;;;;;;3.00;92.36;100394.47;5108661;28;20085;-70
2022/03/04 06:09:02;;;;;;;51.40;30.08;;;;;;;3.02;91.37;100387.31;5109206;28;20046;-70
2022/03/04 06:11:28;;;;;;;53.65;31.33;;;;;;;3.06;91.89;100399.44;5109071;28;20028;-70
2022/03/04 06:13:53;;;;;;;55.13;30.05;;;;;;;3.06;92.31;100390.66;5109161;28;20053;-71
2022/03/04 06:16:20;;;;;;;49.92;30.88;;;;;;;3.08;92.14;100410.81;5108888;28;20033;-71
2022/03/04 06:18:46;;;;;;;53.20;31.35;;;;;;;3.10;92.42;100402.78;5108920;28;20036;-71
2022/03/04 06:21:11;;;;;;;52.60;30.95;;;;;;;3.09;92.58;100409.03;5108731;28;20024;-71
2022/03/04 06:23:37;;;;;;;52.30;29.80;;;;;;;3.05;92.75;100404.81;5108316;28;20020;-72
2022/03/04 06:26:03;;;;;;;55.03;29.98;;;;;;;3.10;92.59;100414.25;5107284;28;20056;-71
2022/03/04 06:28:28;;;;;;;53.85;31.38;;;;;;;3.11;92.10;100418.59;5107450;28;20146;-70
2022/03/04 06:30:54;;;;;;;54.80;30.52;;;;;;;3.15;92.11;100419.25;5108552;28;20118;-71
2022/03/04 06:33:32;;;;;;;54.95;31.40;;;;;;;3.15;92.14;100421.91;5107332;28;20028;-71
2022/03/04 06:36:14;;;;;;;46.60;28.55;;;;;;;3.09;92.07;100404.56;5107192;28;20600;-70
2022/03/04 06:38:42;;;;;;;55.47;30.13;;;;;;;3.18;91.49;100417.31;5108290;28;20028;-70
2022/03/04 06:41:09;;;;;;;55.22;31.02;;;;;;;3.19;91.66;100423.47;5108354;28;20028;-71
2022/03/04 06:43:35;;;;;;;51.80;30.75;;;;;;;3.14;91.14;100405.19;5108428;28;20019;-71
2022/03/04 06:46:02;;;;;;;66.20;32.10;;;;;;;3.25;90.47;100421.31;5108171;28;20428;-71
2022/03/04 06:48:28;;;;;;;54.88;31.33;;;;;;;3.26;90.32;100411.59;5108441;28;20360;-71
2022/03/04 06:50:53;;;;;;;56.38;30.30;;;;;;;3.30;90.09;100407.81;5108275;28;20028;-71
2022/03/04 06:53:20;;;;;;;54.92;30.92;;;;;;;3.25;90.08;100393.94;5106956;28;20076;-71
2022/03/04 06:55:46;;;;;;;57.97;31.73;;;;;;;3.27;89.43;100400.03;5108184;28;20051;-71
2022/03/04 06:58:12;;;;;;;54.42;31.52;;;;;;;3.33;89.26;100410.28;5099221;28;20036;-72
2022/03/04 07:00:39;;;;;;;54.78;31.23;;;;;;;3.32;89.36;100398.81;5094192;28;20063;-70
2022/03/04 07:03:04;;;;;;;56.42;31.73;;;;;;;3.34;89.59;100404.03;5094335;28;20042;-70
2022/03/04 07:05:30;;;;;;;55.50;32.03;;;;;;;3.38;89.69;100410.88;5093819;28;20652;-70
2022/03/04 07:07:55;;;;;;;51.70;29.52;;;;;;;3.40;90.30;100420.47;5092863;28;20187;-71
2022/03/04 07:10:22;;;;;;;57.88;32.03;;;;;;;3.38;89.71;100411.72;5092781;28;20468;-71
2022/03/04 07:12:48;;;;;;;50.88;29.98;;;;;;;3.48;89.13;100426.16;5092895;28;20056;-71
2022/03/04 07:15:14;;;;;;;52.75;29.30;;;;;;;3.47;88.12;100418.31;5094134;28;20082;-71
2022/03/04 07:17:40;;;;;;;54.60;29.58;;;;;;;3.45;87.42;100415.75;5093839;28;20042;-69
2022/03/04 07:20:07;;;;;;;52.58;30.17;;;;;;;3.54;87.52;100424.94;5093458;28;20142;-70
2022/03/04 07:22:35;;;;;;;52.90;29.73;;;;;;;3.57;86.83;100420.34;5093533;28;20032;-69
2022/03/04 07:25:05;;;;;;;51.13;29.27;;;;;;;3.67;86.55;100431.25;5093545;28;20480;-69
2022/03/04 07:27:33;;;;;;;50.17;29.17;;;;;;;3.74;85.66;100433.47;5093520;28;20024;-68
2022/03/04 07:29:59;;;;;;;52.78;31.17;;;;;;;3.79;84.52;100436.72;5092930;28;20089;-69
2022/03/04 07:32:24;;;;;;;50.17;28.92;;;;;;;3.81;83.59;100426.03;5092413;28;20027;-69
2022/03/04 07:34:49;;;;;;;49.63;28.60;;;;;;;3.97;83.29;100437.44;5093096;28;20039;-69
2022/03/04 07:37:15;;;;;;;53.22;31.13;;;;;;;4.12;81.95;100444.47;5093049;28;20031;-69
2022/03/04 07:39:40;;;;;;;47.70;28.45;;;;;;;4.20;80.77;100448.38;5093233;28;20107;-70
2022/03/04 07:42:07;;;;;;;50.35;28.67;;;;;;;4.31;78.82;100447.75;5093023;28;20382;-69
2022/03/04 07:44:32;;;;;;;46.03;28.10;;;;;;;4.33;78.40;100444.03;5093178;28;20078;-69
2022/03/04 07:46:58;;;;;;;51.67;29.75;;;;;;;4.46;77.91;100441.53;5093010;28;20036;-70
2022/03/04 07:49:23;;;;;;;49.05;28.85;;;;;;;4.55;78.01;100459.56;5092895;28;20115;-69
2022/03/04 07:51:48;;;;;;;52.75;30.05;;;;;;;4.57;78.10;100433.75;5093042;28;20023;-70
2022/03/04 07:54:14;;;;;;;50.35;29.50;;;;;;;4.73;77.52;100459.28;5092550;28;20019;-70
2022/03/04 07:56:40;;;;;;;52.25;29.60;;;;;;;4.81;76.45;100458.81;5092943;28;20022;-70
2022/03/04 07:59:05;;;;;;;50.13;29.05;;;;;;;4.85;73.86;100462.09;5092822;28;20093;-70
2022/03/04 08:01:31;;;;;;;54.78;30.95;;;;;;;4.80;73.46;100449.09;5092674;28;20072;-70
2022/03/04 08:03:56;;;;;;;48.28;28.35;;;;;;;4.90;73.39;100463.53;5092432;28;20024;-70
2022/03/04 08:06:22;;;;;;;45.22;27.08;;;;;;;4.92;72.36;100464.28;5092763;28;20081;-70
2022/03/04 08:08:47;;;;;;;48.45;28.33;;;;;;;4.92;70.21;100469.63;5092206;28;20026;-70
2022/03/04 08:11:13;;;;;;;43.53;26.48;;;;;;;4.91;69.08;100464.38;5092022;28;20032;-70
2022/03/04 08:13:38;;;;;;;50.38;28.55;;;;;;;4.94;68.59;100478.34;5092668;28;20073;-69
2022/03/04 08:16:04;;;;;;;47.13;28.35;;;;;;;4.92;68.14;100463.44;5092479;28;20114;-68
2022/03/04 08:18:30;;;;;;;45.00;26.60;;;;;;;5.01;68.21;100477.03;5092473;28;20059;-69
2022/03/04 08:20:55;;;;;;;46.42;27.70;;;;;;;5.05;68.60;100482.97;5092616;28;20032;-70
2022/03/04 08:23:21;;;;;;;50.88;29.02;;;;;;;5.12;66.91;100482.50;5092514;28;20028;-69
2022/03/04 08:25:49;;;;;;;50.20;29.40;;;;;;;5.16;67.74;100484.00;5090502;28;20008;-70
2022/03/04 08:28:15;;;;;;;45.08;27.50;;;;;;;5.15;68.95;100484.97;5090258;28;20051;-70
2022/03/04 08:30:40;;;;;;;44.08;26.95;;;;;;;5.14;69.57;100474.44;5092081;28;20072;-70
2022/03/04 08:33:06;;;;;;;50.42;29.33;;;;;;;5.20;69.48;100476.72;5092139;28;20032;-70
2022/03/04 08:35:31;;;;;;;51.30;29.80;;;;;;;5.18;68.23;100466.16;5090962;28;20016;-69
2022/03/04 08:37:57;;;;;;;50.13;29.40;;;;;;;5.25;67.29;100482.59;5092190;28;20032;-69
2022/03/04 08:40:23;;;;;;;53.92;29.65;;;;;;;5.36;67.68;100485.41;5091912;28;20032;-70
2022/03/04 08:42:49;;;;;;;48.72;30.58;;;;;;;5.34;67.07;100463.38;5092062;28;20031;-70
2022/03/04 08:45:15;;;;;;;51.92;30.33;;;;;;;5.53;66.55;100483.38;5091865;28;20040;-70
2022/03/04 08:47:44;;;;;;;54.35;30.38;;;;;;;5.60;65.58;100479.38;5091886;28;20135;-70
2022/03/04 08:50:11;;;;;;;47.30;28.35;;;;;;;5.74;65.44;100476.66;5091961;28;20024;-70
2022/03/04 08:52:37;;;;;;;47.25;28.33;;;;;;;5.89;66.31;100477.47;5091919;28;20399;-69
2022/03/04 08:55:14;;;;;;;55.55;30.30;;;;;;;6.04;66.00;100474.69;5091765;28;20099;-70
2022/03/04 08:57:48;;;;;;;50.10;30.17;;;;;;;6.31;63.76;100490.59;5091998;28;20023;-71
2022/03/04 09:00:16;;;;;;;47.33;29.83;;;;;;;6.40;63.18;100488.19;5091490;28;20256;-70
2022/03/04 09:02:42;;;;;;;49.83;29.13;;;;;;;6.52;61.78;100486.50;5091641;28;20031;-71
2022/03/04 09:05:08;;;;;;;45.22;28.50;;;;;;;6.63;60.39;100479.47;5090492;28;20028;-71
2022/03/04 09:07:33;;;;;;;50.90;29.77;;;;;;;7.00;58.50;100485.75;5090262;28;20043;-70
2022/03/04 09:09:59;;;;;;;45.50;28.75;;;;;;;7.13;57.38;100472.38;5091760;28;20028;-70
2022/03/04 09:12:25;;;;;;;48.47;28.80;;;;;;;7.28;57.48;100480.13;5090171;28;20039;-70
2022/03/04 09:14:50;;;;;;;45.92;28.05;;;;;;;7.57;56.88;100481.56;5091345;28;20028;-70
2022/03/04 09:17:16;;;;;;;50.55;29.92;;;;;;;8.31;56.12;100475.97;5091352;28;20792;-71
2022/03/04 09:19:42;;;;;;;45.40;29.50;;;;;;;9.14;52.93;100464.94;5091525;28;20153;-70
2022/03/04 09:22:08;;;;;;;43.78;28.42;;;;;;;9.71;50.62;100470.97;5090724;28;20468;-69
2022/03/04 09:24:33;;;;;;;45.80;28.58;;;;;;;9.88;49.57;100454.34;5090726;28;20383;-69
2022/03/04 09:26:59;;;;;;;46.40;30.90;;;;;;;10.09;48.05;100468.66;5091341;28;20027;-69
2022/03/04 09:29:24;;;;;;;52.38;30.05;;;;;;;9.97;48.24;100469.66;5091209;28;20047;-69
2022/03/04 09:31:50;;;;;;;44.95;28.83;;;;;;;9.77;47.87;100453.53;5091373;28;20127;-70
2022/03/04 09:34:15;;;;;;;51.97;32.08;;;;;;;9.55;46.59;100464.28;5091347;28;20028;-69
2022/03/04 09:36:41;;;;;;;53.70;30.85;;;;;;;9.43;45.38;100467.97;5090200;28;20048;-71
2022/03/04 09:39:08;;;;;;;52.03;31.02;;;;;;;9.61;46.38;100458.44;5091612;28;20023;-72
2022/03/04 09:41:40;;;;;;;54.45;33.55;;;;;;;9.85;45.27;100464.44;5091340;28;20055;-72
2022/03/04 09:44:05;;;;;;;57.30;33.80;;;;;;;10.12;44.17;100462.22;5090063;28;20027;-72
2022/03/04 09:46:31;;;;;;;51.15;34.33;;;;;;;10.15;43.79;100465.47;5091543;28;20026;-72
2022/03/04 09:48:57;;;;;;;51.60;32.45;;;;;;;10.05;44.72;100461.81;5091712;28;20036;-72
2022/03/04 09:51:23;;;;;;;59.30;36.08;;;;;;;9.94;44.68;100467.25;5091730;28;20034;-72
2022/03/04 09:53:51;;;;;;;58.45;35.63;;;;;;;9.78;44.83;100463.25;5091596;28;20089;-71
2022/03/04 09:56:19;;;;;;;58.28;35.45;;;;;;;9.61;45.19;100466.47;5089963;28;20034;-71
2022/03/04 09:58:44;;;;;;;62.65;37.25;;;;;;;9.54;44.52;100460.75;5091450;28;20516;-71
2022/03/04 10:01:12;;;;;;;54.60;34.78;;;;;;;9.19;43.75;100449.34;5091149;28;20559;-71
2022/03/04 10:03:52;;;;;;;53.28;32.90;;;;;;;9.20;42.63;100469.81;5091600;28;20024;-72
2022/03/04 10:06:19;;;;;;;50.03;30.55;;;;;;;9.26;42.44;100470.16;5090110;28;20024;-71
2022/03/04 10:08:50;;;;;;;51.05;31.83;;;;;;;9.35;42.26;100460.53;5089797;28;20024;-70
2022/03/04 10:11:36;;;;;;;50.10;31.83;;;;;;;9.53;41.40;100464.41;5091170;28;20035;-72
2022/03/04 10:14:08;;;;;;;44.53;29.90;;;;;;;10.10;41.55;100450.75;5091139;28;20049;-72
2022/03/04 10:16:39;;;;;;;48.28;30.48;;;;;;;11.24;39.30;100446.09;5089684;28;20032;-71
2022/03/04 10:19:13;;;;;;;42.15;29.40;;;;;;;12.55;36.46;100450.94;5091151;28;20043;-71
2022/03/04 10:21:52;;;;;;;39.13;27.58;;;;;;;13.76;33.50;100441.84;5091001;28;20024;-72
2022/03/04 10:24:32;;;;;;;45.00;29.45;;;;;;;14.79;32.79;100427.59;5090980;28;20568;-72
2022/03/04 10:27:18;;;;;;;46.50;28.85;;;;;;;15.55;31.26;100415.88;5090673;28;20021;-72
2022/03/04 10:29:47;;;;;;;39.80;28.40;;;;;;;16.00;30.24;100421.72;5089825;28;20087;-72
2022/03/04 10:32:19;;;;;;;40.97;29.65;;;;;;;16.03;29.90;100425.94;5090437;28;20487;-72
2022/03/04 10:34:47;;;;;;;41.38;28.83;;;;;;;15.65;29.54;100420.13;5093952;28;20488;-71
2022/03/04 10:37:14;;;;;;;44.40;30.02;;;;;;;14.81;31.05;100431.00;5092684;28;20028;-71
2022/03/04 10:40:03;;;;;;;44.47;30.00;;;;;;;13.94;32.17;100431.91;5092790;28;20043;-71
2022/03/04 10:42:42;;;;;;;39.78;27.98;;;;;;;13.10;33.19;100436.63;5093966;28;20038;-72
2022/03/04 10:45:18;;;;;;;44.15;28.65;;;;;;;12.18;33.50;100443.72;5093764;28;20032;-72
2022/03/04 10:47:50;;;;;;;43.22;29.27;;;;;;;11.70;34.58;100435.63;5093872;28;20107;-71
2022/03/04 10:50:19;;;;;;;43.22;29.33;;;;;;;11.25;35.59;100432.53;5093636;28;20012;-71
2022/03/04 10:52:53;;;;;;;41.88;28.42;;;;;;;10.70;36.50;100435.66;5094015;28;20075;-72
2022/03/04 10:55:29;;;;;;;43.22;28.27;;;;;;;10.36;36.92;100446.72;5093373;28;20026;-71
2022/03/04 10:57:56;;;;;;;42.92;28.33;;;;;;;9.99;38.02;100440.91;5093757;28;20032;-70
2022/03/04 11:00:38;;;;;;;49.08;29.73;;;;;;;9.66;38.05;100424.09;5093261;28;20075;-71
2022/03/04 11:03:07;;;;;;;48.38;29.40;;;;;;;9.64;38.27;100445.63;5093414;28;20040;-71
2022/03/04 11:05:34;;;;;;;46.45;29.67;;;;;;;9.59;38.12;100441.63;5093243;28;20027;-71
2022/03/04 11:08:01;;;;;;;46.55;29.13;;;;;;;9.50;39.18;100421.81;5093399;28;20388;-72
2022/03/04 11:10:26;;;;;;;45.20;28.98;;;;;;;9.55;38.55;100434.84;5093050;28;20024;-72
2022/03/04 11:12:55;;;;;;;44.40;30.02;;;;;;;9.60;38.25;100427.25;5091906;28;20035;-72
2022/03/04 11:15:23;;;;;;;49.13;31.27;;;;;;;9.57;38.34;100438.25;5091631;28;20035;-71
2022/03/04 11:17:49;;;;;;;48.65;31.58;;;;;;;9.51;38.78;100436.06;5093086;28;20032;-72
2022/03/04 11:20:16;;;;;;;48.97;30.83;;;;;;;9.44;38.99;100432.19;5091723;28;20170;-72
2022/03/04 11:22:43;;;;;;;46.35;29.75;;;;;;;9.40;38.57;100436.94;5091896;28;20490;-71
2022/03/04 11:25:14;;;;;;;43.47;29.33;;;;;;;9.36;38.93;100431.94;5093000;28;20471;-71
2022/03/04 11:27:47;;;;;;;48.13;30.50;;;;;;;9.25;39.10;100422.09;5085164;28;20023;-71
2022/03/04 11:30:33;;;;;;;47.83;31.17;;;;;;;9.14;38.89;100440.88;5090946;28;20115;-71
2022/03/04 11:33:21;;;;;;;49.85;29.30;;;;;;;8.98;39.17;100433.22;5092053;28;20099;-72
2022/03/04 11:38:44;;;;;;;44.88;29.40;;;;;;;8.77;39.39;100442.91;3499796;22;20139;-67